FLX644A SBSG-SBSL
Flight info
| Callsign | FLX644A |
|---|---|
| Flight time | 1h 27m |
| Altitude | 34000 |
| Route | SINUD UZ86 ESARU DCT FLZ UZ81 KADOT |
| Aircraft | A21N/M-SDE3FGHIRWY/LB1 |
Departure
| Time | 2026-05-06 16:56 |
|---|---|
| Airport | Rio Grande do Norte/São Gonçalo do Amarante–Governador Aluízio Alves International Airport (SBSG) |
Arrival
| Time | 2026-05-06 18:23 |
|---|---|
| Airport | Marechal Cunha Machado International Airport (SBSL) |
| Time | Latitude | Longitude | Altitude | Speed | Heading |
|---|---|---|---|---|---|
| 2026-05-06 16:32 | -5.76439 | -35.37352 | 289 ft | 0 kts | 10° |
| 2026-05-06 16:48 | -5.76447 | -35.37353 | 289 ft | 2 kts | 9° |
| 2026-05-06 16:48 | -5.76462 | -35.37356 | 289 ft | 2 kts | 9° |
| 2026-05-06 16:48 | -5.76477 | -35.37358 | 289 ft | 2 kts | 9° |
| 2026-05-06 16:48 | -5.76492 | -35.37360 | 289 ft | 2 kts | 11° |
| 2026-05-06 16:49 | -5.76504 | -35.37368 | 289 ft | 2 kts | 60° |
| 2026-05-06 16:49 | -5.76508 | -35.37381 | 289 ft | 0 kts | 95° |
| 2026-05-06 16:49 | -5.76507 | -35.37387 | 289 ft | 1 kts | 101° |
| 2026-05-06 16:49 | -5.76506 | -35.37389 | 289 ft | 0 kts | 100° |
| 2026-05-06 16:52 | -5.76510 | -35.37367 | 289 ft | 5 kts | 98° |
| 2026-05-06 16:52 | -5.76518 | -35.37312 | 289 ft | 10 kts | 98° |
| 2026-05-06 16:53 | -5.76550 | -35.37247 | 289 ft | 10 kts | 154° |
| 2026-05-06 16:53 | -5.76627 | -35.37251 | 289 ft | 12 kts | 189° |
| 2026-05-06 16:53 | -5.76704 | -35.37289 | 289 ft | 12 kts | 263° |
| 2026-05-06 16:53 | -5.76693 | -35.37380 | 289 ft | 13 kts | 279° |
| 2026-05-06 16:54 | -5.76677 | -35.37473 | 289 ft | 13 kts | 279° |
| 2026-05-06 16:54 | -5.76661 | -35.37569 | 289 ft | 14 kts | 279° |
| 2026-05-06 16:54 | -5.76642 | -35.37684 | 289 ft | 19 kts | 279° |
| 2026-05-06 16:54 | -5.76620 | -35.37817 | 289 ft | 19 kts | 279° |
| 2026-05-06 16:55 | -5.76621 | -35.37946 | 289 ft | 17 kts | 230° |
| 2026-05-06 16:55 | -5.76738 | -35.37971 | 289 ft | 19 kts | 160° |
| 2026-05-06 16:55 | -5.76803 | -35.37778 | 289 ft | 54 kts | 99° |
| 2026-05-06 16:55 | -5.76902 | -35.37170 | 289 ft | 120 kts | 100° |
| 2026-05-06 16:56 | -5.77066 | -35.36134 | 322 ft | 170 kts | 101° |
| 2026-05-06 16:56 | -5.77248 | -35.34948 | 846 ft | 175 kts | 101° |
| 2026-05-06 16:56 | -5.77377 | -35.33728 | 1338 ft | 184 kts | 84° |
| 2026-05-06 16:56 | -5.76639 | -35.32630 | 1676 ft | 208 kts | 33° |
| 2026-05-06 16:57 | -5.75141 | -35.32451 | 1993 ft | 233 kts | 346° |
| 2026-05-06 16:57 | -5.73723 | -35.33385 | 2246 ft | 256 kts | 307° |
| 2026-05-06 16:57 | -5.72706 | -35.34907 | 2663 ft | 272 kts | 303° |
| 2026-05-06 16:57 | -5.71622 | -35.36528 | 3180 ft | 286 kts | 303° |
| 2026-05-06 16:58 | -5.70485 | -35.38197 | 3914 ft | 290 kts | 304° |
| 2026-05-06 16:58 | -5.69343 | -35.39878 | 4701 ft | 292 kts | 304° |
| 2026-05-06 16:58 | -5.68210 | -35.41552 | 5477 ft | 294 kts | 305° |
| 2026-05-06 16:58 | -5.67052 | -35.43268 | 6224 ft | 297 kts | 305° |
| 2026-05-06 16:59 | -5.65901 | -35.44971 | 6959 ft | 300 kts | 305° |
| 2026-05-06 16:59 | -5.64719 | -35.46722 | 7718 ft | 302 kts | 305° |
| 2026-05-06 16:59 | -5.63553 | -35.48451 | 8448 ft | 304 kts | 305° |
| 2026-05-06 16:59 | -5.62355 | -35.50230 | 9146 ft | 307 kts | 305° |
| 2026-05-06 17:00 | -5.61162 | -35.52003 | 9817 ft | 310 kts | 306° |
| 2026-05-06 17:00 | -5.59952 | -35.53798 | 10424 ft | 315 kts | 305° |
| 2026-05-06 17:00 | -5.58685 | -35.55677 | 10740 ft | 331 kts | 305° |
| 2026-05-06 17:00 | -5.57361 | -35.57641 | 11017 ft | 348 kts | 305° |
| 2026-05-06 17:01 | -5.55978 | -35.59692 | 11295 ft | 363 kts | 305° |
| 2026-05-06 17:01 | -5.54525 | -35.61848 | 11559 ft | 379 kts | 305° |
| 2026-05-06 17:01 | -5.53008 | -35.64101 | 11815 ft | 393 kts | 305° |
| 2026-05-06 17:01 | -5.51458 | -35.66401 | 12111 ft | 405 kts | 305° |
| 2026-05-06 17:02 | -5.49840 | -35.68804 | 12618 ft | 410 kts | 305° |
| 2026-05-06 17:02 | -5.48244 | -35.71174 | 13189 ft | 413 kts | 305° |
| 2026-05-06 17:02 | -5.46612 | -35.73598 | 13744 ft | 416 kts | 305° |
| 2026-05-06 17:02 | -5.45006 | -35.75981 | 14282 ft | 418 kts | 305° |
| 2026-05-06 17:03 | -5.43369 | -35.78411 | 14786 ft | 421 kts | 305° |
| 2026-05-06 17:03 | -5.41719 | -35.80859 | 15289 ft | 423 kts | 304° |
| 2026-05-06 17:03 | -5.40050 | -35.83335 | 15837 ft | 424 kts | 304° |
| 2026-05-06 17:03 | -5.38409 | -35.85771 | 16315 ft | 425 kts | 304° |
| 2026-05-06 17:04 | -5.36746 | -35.88238 | 16788 ft | 427 kts | 304° |
| 2026-05-06 17:04 | -5.35088 | -35.90697 | 17253 ft | 428 kts | 304° |
| 2026-05-06 17:04 | -5.33410 | -35.93188 | 17663 ft | 431 kts | 304° |
| 2026-05-06 17:04 | -5.31703 | -35.95725 | 18025 ft | 435 kts | 304° |
| 2026-05-06 17:05 | -5.30021 | -35.98223 | 18450 ft | 436 kts | 305° |
| 2026-05-06 17:05 | -5.28300 | -36.00778 | 18878 ft | 438 kts | 305° |
| 2026-05-06 17:05 | -5.26601 | -36.03298 | 19289 ft | 439 kts | 305° |
| 2026-05-06 17:05 | -5.24877 | -36.05856 | 19699 ft | 441 kts | 305° |
| 2026-05-06 17:06 | -5.23170 | -36.08387 | 20091 ft | 442 kts | 305° |
| 2026-05-06 17:06 | -5.21447 | -36.10941 | 20493 ft | 443 kts | 305° |
| 2026-05-06 17:06 | -5.19713 | -36.13493 | 20897 ft | 444 kts | 306° |
| 2026-05-06 17:06 | -5.17882 | -36.16003 | 21276 ft | 444 kts | 308° |
| 2026-05-06 17:07 | -5.16044 | -36.18484 | 21643 ft | 446 kts | 308° |
| 2026-05-06 17:07 | -5.14177 | -36.20999 | 21996 ft | 447 kts | 308° |
| 2026-05-06 17:07 | -5.12333 | -36.23483 | 22363 ft | 448 kts | 308° |
| 2026-05-06 17:07 | -5.10463 | -36.26002 | 22699 ft | 449 kts | 308° |
| 2026-05-06 17:08 | -5.08581 | -36.28537 | 23022 ft | 451 kts | 308° |
| 2026-05-06 17:08 | -5.06684 | -36.31093 | 23302 ft | 454 kts | 307° |
| 2026-05-06 17:08 | -5.04792 | -36.33644 | 23571 ft | 456 kts | 307° |
| 2026-05-06 17:08 | -5.02914 | -36.36179 | 23850 ft | 458 kts | 307° |
| 2026-05-06 17:09 | -5.00997 | -36.38764 | 24188 ft | 458 kts | 307° |
| 2026-05-06 17:09 | -4.99115 | -36.41303 | 24572 ft | 457 kts | 307° |
| 2026-05-06 17:09 | -4.97207 | -36.43875 | 24974 ft | 455 kts | 307° |
| 2026-05-06 17:09 | -4.95334 | -36.46402 | 25321 ft | 455 kts | 306° |
| 2026-05-06 17:10 | -4.93436 | -36.48962 | 25651 ft | 455 kts | 306° |
| 2026-05-06 17:10 | -4.91562 | -36.51489 | 25971 ft | 455 kts | 306° |
| 2026-05-06 17:10 | -4.89663 | -36.54050 | 26289 ft | 455 kts | 306° |
| 2026-05-06 17:10 | -4.87793 | -36.56573 | 26597 ft | 455 kts | 306° |
| 2026-05-06 17:11 | -4.85902 | -36.59124 | 26924 ft | 454 kts | 305° |
| 2026-05-06 17:11 | -4.84013 | -36.61672 | 27243 ft | 454 kts | 305° |
| 2026-05-06 17:11 | -4.82123 | -36.64220 | 27550 ft | 453 kts | 305° |
| 2026-05-06 17:11 | -4.80271 | -36.66717 | 27869 ft | 453 kts | 304° |
| 2026-05-06 17:12 | -4.78393 | -36.69249 | 28191 ft | 452 kts | 304° |
| 2026-05-06 17:12 | -4.76544 | -36.71746 | 28470 ft | 452 kts | 304° |
| 2026-05-06 17:12 | -4.74631 | -36.74328 | 28776 ft | 452 kts | 304° |
| 2026-05-06 17:12 | -4.72755 | -36.76859 | 29091 ft | 452 kts | 304° |
| 2026-05-06 17:13 | -4.70873 | -36.79396 | 29420 ft | 451 kts | 304° |
| 2026-05-06 17:13 | -4.68997 | -36.81922 | 29790 ft | 450 kts | 304° |
| 2026-05-06 17:13 | -4.67118 | -36.84452 | 30164 ft | 448 kts | 304° |
| 2026-05-06 17:13 | -4.65252 | -36.86966 | 30520 ft | 446 kts | 304° |
| 2026-05-06 17:14 | -4.63375 | -36.89497 | 30856 ft | 445 kts | 303° |
| 2026-05-06 17:14 | -4.61532 | -36.91983 | 31174 ft | 445 kts | 304° |
| 2026-05-06 17:14 | -4.59670 | -36.94496 | 31492 ft | 444 kts | 304° |
| 2026-05-06 17:14 | -4.57824 | -36.96987 | 31821 ft | 442 kts | 303° |
| 2026-05-06 17:15 | -4.56004 | -36.99443 | 32145 ft | 441 kts | 303° |
| 2026-05-06 17:15 | -4.54170 | -37.01919 | 32469 ft | 439 kts | 303° |
| 2026-05-06 17:15 | -4.52359 | -37.04361 | 32786 ft | 438 kts | 303° |
| 2026-05-06 17:15 | -4.50532 | -37.06831 | 33118 ft | 437 kts | 304° |
| 2026-05-06 17:16 | -4.48726 | -37.09269 | 33447 ft | 436 kts | 304° |
| 2026-05-06 17:16 | -4.46918 | -37.11711 | 33774 ft | 434 kts | 304° |
| 2026-05-06 17:16 | -4.45134 | -37.14118 | 34078 ft | 433 kts | 304° |
| 2026-05-06 17:16 | -4.43326 | -37.16557 | 34347 ft | 433 kts | 304° |
| 2026-05-06 17:17 | -4.41533 | -37.18975 | 34572 ft | 433 kts | 304° |
| 2026-05-06 17:17 | -4.39732 | -37.21403 | 34774 ft | 433 kts | 304° |
| 2026-05-06 17:17 | -4.37941 | -37.23819 | 34993 ft | 433 kts | 304° |
| 2026-05-06 17:17 | -4.36160 | -37.26221 | 35177 ft | 434 kts | 305° |
| 2026-05-06 17:18 | -4.34356 | -37.28654 | 35332 ft | 435 kts | 305° |
| 2026-05-06 17:18 | -4.32548 | -37.31090 | 35497 ft | 435 kts | 305° |
| 2026-05-06 17:18 | -4.30741 | -37.33526 | 35683 ft | 435 kts | 305° |
| 2026-05-06 17:18 | -4.28938 | -37.35957 | 35843 ft | 435 kts | 305° |
| 2026-05-06 17:19 | -4.27142 | -37.38379 | 35900 ft | 437 kts | 305° |
| 2026-05-06 17:19 | -4.23512 | -37.43269 | 35907 ft | 437 kts | 305° |
| 2026-05-06 17:20 | -4.19867 | -37.48182 | 35907 ft | 438 kts | 305° |
| 2026-05-06 17:20 | -4.16246 | -37.53064 | 35910 ft | 439 kts | 305° |
| 2026-05-06 17:21 | -4.12598 | -37.57982 | 35907 ft | 439 kts | 306° |
| 2026-05-06 17:21 | -4.08945 | -37.62894 | 35909 ft | 440 kts | 306° |
| 2026-05-06 17:22 | -4.05269 | -37.67786 | 35910 ft | 439 kts | 306° |
| 2026-05-06 17:22 | -4.01592 | -37.72687 | 35909 ft | 439 kts | 306° |
| 2026-05-06 17:23 | -3.97918 | -37.77588 | 35908 ft | 440 kts | 306° |
| 2026-05-06 17:23 | -3.94242 | -37.82497 | 35908 ft | 440 kts | 306° |
| 2026-05-06 17:24 | -3.90584 | -37.87380 | 35909 ft | 441 kts | 306° |
| 2026-05-06 17:24 | -3.86973 | -37.92392 | 35908 ft | 441 kts | 301° |
| 2026-05-06 17:25 | -3.84064 | -37.97765 | 35913 ft | 441 kts | 293° |
| 2026-05-06 17:25 | -3.81973 | -38.03515 | 35922 ft | 441 kts | 285° |
| 2026-05-06 17:26 | -3.80713 | -38.09533 | 35927 ft | 441 kts | 279° |
| 2026-05-06 17:26 | -3.79746 | -38.15552 | 35928 ft | 440 kts | 279° |
| 2026-05-06 17:27 | -3.78781 | -38.21586 | 35929 ft | 440 kts | 279° |
| 2026-05-06 17:27 | -3.77815 | -38.27594 | 35930 ft | 440 kts | 279° |
| 2026-05-06 17:28 | -3.76839 | -38.33644 | 35932 ft | 439 kts | 279° |
| 2026-05-06 17:28 | -3.75868 | -38.39659 | 35934 ft | 440 kts | 279° |
| 2026-05-06 17:29 | -3.74885 | -38.45735 | 35937 ft | 441 kts | 279° |
| 2026-05-06 17:29 | -3.73914 | -38.51742 | 35937 ft | 440 kts | 279° |
| 2026-05-06 17:30 | -3.72935 | -38.57793 | 35940 ft | 440 kts | 279° |
| 2026-05-06 17:30 | -3.71957 | -38.63831 | 35943 ft | 441 kts | 279° |
| 2026-05-06 17:31 | -3.70979 | -38.69871 | 35945 ft | 439 kts | 279° |
| 2026-05-06 17:31 | -3.69997 | -38.75929 | 35946 ft | 440 kts | 279° |
| 2026-05-06 17:32 | -3.69022 | -38.81950 | 35942 ft | 440 kts | 279° |
| 2026-05-06 17:32 | -3.68043 | -38.87988 | 35943 ft | 440 kts | 279° |
| 2026-05-06 17:33 | -3.67063 | -38.94026 | 35939 ft | 440 kts | 279° |
| 2026-05-06 17:33 | -3.66081 | -39.00066 | 35938 ft | 441 kts | 279° |
| 2026-05-06 17:34 | -3.65100 | -39.06110 | 35934 ft | 441 kts | 279° |
| 2026-05-06 17:34 | -3.64123 | -39.12133 | 35930 ft | 441 kts | 279° |
| 2026-05-06 17:35 | -3.63135 | -39.18210 | 35927 ft | 441 kts | 279° |
| 2026-05-06 17:35 | -3.62152 | -39.24251 | 35930 ft | 442 kts | 279° |
| 2026-05-06 17:36 | -3.60664 | -39.33393 | 35930 ft | 442 kts | 279° |
| 2026-05-06 17:36 | -3.59673 | -39.39473 | 35928 ft | 441 kts | 279° |
| 2026-05-06 17:37 | -3.58693 | -39.45501 | 35932 ft | 442 kts | 279° |
| 2026-05-06 17:37 | -3.57706 | -39.51564 | 35937 ft | 441 kts | 279° |
| 2026-05-06 17:38 | -3.56717 | -39.57631 | 35935 ft | 441 kts | 279° |
| 2026-05-06 17:38 | -3.55725 | -39.63719 | 35928 ft | 443 kts | 279° |
| 2026-05-06 17:39 | -3.54732 | -39.69801 | 35930 ft | 443 kts | 279° |
| 2026-05-06 17:39 | -3.53731 | -39.75921 | 35928 ft | 443 kts | 279° |
| 2026-05-06 17:40 | -3.52741 | -39.81992 | 35930 ft | 442 kts | 279° |
| 2026-05-06 17:40 | -3.51750 | -39.88055 | 35923 ft | 442 kts | 279° |
| 2026-05-06 17:41 | -3.50757 | -39.94140 | 35917 ft | 441 kts | 279° |
| 2026-05-06 17:41 | -3.49767 | -40.00193 | 35915 ft | 442 kts | 279° |
| 2026-05-06 17:42 | -3.48773 | -40.06279 | 35910 ft | 443 kts | 279° |
| 2026-05-06 17:42 | -3.47778 | -40.12355 | 35910 ft | 444 kts | 279° |
| 2026-05-06 17:43 | -3.46779 | -40.18453 | 35911 ft | 443 kts | 279° |
| 2026-05-06 17:43 | -3.45784 | -40.24535 | 35910 ft | 444 kts | 279° |
| 2026-05-06 17:44 | -3.44788 | -40.30616 | 35914 ft | 443 kts | 279° |
| 2026-05-06 17:44 | -3.43791 | -40.36702 | 35923 ft | 443 kts | 279° |
| 2026-05-06 17:45 | -3.42799 | -40.42747 | 35932 ft | 443 kts | 279° |
| 2026-05-06 17:45 | -3.41798 | -40.48851 | 35939 ft | 443 kts | 279° |
| 2026-05-06 17:46 | -3.40806 | -40.54898 | 35939 ft | 444 kts | 279° |
| 2026-05-06 17:46 | -3.39800 | -40.61022 | 35936 ft | 444 kts | 279° |
| 2026-05-06 17:47 | -3.38806 | -40.67084 | 35925 ft | 443 kts | 279° |
| 2026-05-06 17:47 | -3.37804 | -40.73180 | 35916 ft | 443 kts | 279° |
| 2026-05-06 17:48 | -3.36806 | -40.79259 | 35912 ft | 444 kts | 279° |
| 2026-05-06 17:48 | -3.35805 | -40.85337 | 35918 ft | 444 kts | 279° |
| 2026-05-06 17:49 | -3.34800 | -40.91451 | 35921 ft | 444 kts | 279° |
| 2026-05-06 17:49 | -3.33798 | -40.97543 | 35932 ft | 444 kts | 279° |
| 2026-05-06 17:50 | -3.32793 | -41.03646 | 35941 ft | 444 kts | 279° |
| 2026-05-06 17:50 | -3.31788 | -41.09752 | 35942 ft | 444 kts | 279° |
| 2026-05-06 17:51 | -3.30786 | -41.15830 | 35937 ft | 445 kts | 279° |
| 2026-05-06 17:51 | -3.29781 | -41.21925 | 35926 ft | 444 kts | 279° |
| 2026-05-06 17:52 | -3.28777 | -41.28021 | 35923 ft | 444 kts | 278° |
| 2026-05-06 17:52 | -3.27773 | -41.34108 | 35925 ft | 445 kts | 279° |
| 2026-05-06 17:53 | -3.26771 | -41.40180 | 35927 ft | 445 kts | 279° |
| 2026-05-06 17:53 | -3.25762 | -41.46298 | 35934 ft | 445 kts | 279° |
| 2026-05-06 17:54 | -3.24757 | -41.52380 | 35931 ft | 444 kts | 279° |
| 2026-05-06 17:54 | -3.23755 | -41.58445 | 35933 ft | 444 kts | 279° |
| 2026-05-06 17:55 | -3.22743 | -41.64567 | 35928 ft | 446 kts | 279° |
| 2026-05-06 17:55 | -3.21729 | -41.70697 | 35923 ft | 446 kts | 278° |
| 2026-05-06 17:56 | -3.20722 | -41.76797 | 35920 ft | 446 kts | 279° |
| 2026-05-06 17:56 | -3.19714 | -41.82885 | 35918 ft | 446 kts | 279° |
| 2026-05-06 17:57 | -3.18698 | -41.89033 | 35912 ft | 446 kts | 279° |
| 2026-05-06 17:57 | -3.17687 | -41.95133 | 35913 ft | 446 kts | 279° |
| 2026-05-06 17:58 | -3.16677 | -42.01228 | 35907 ft | 446 kts | 279° |
| 2026-05-06 17:58 | -3.15660 | -42.07361 | 35905 ft | 446 kts | 279° |
| 2026-05-06 17:59 | -3.14650 | -42.13464 | 35904 ft | 447 kts | 279° |
| 2026-05-06 17:59 | -3.13629 | -42.19627 | 35904 ft | 448 kts | 279° |
| 2026-05-06 18:00 | -3.12609 | -42.25778 | 35905 ft | 448 kts | 279° |
| 2026-05-06 18:00 | -3.11595 | -42.31888 | 35909 ft | 449 kts | 279° |
| 2026-05-06 18:01 | -3.10569 | -42.38065 | 35909 ft | 449 kts | 279° |
| 2026-05-06 18:01 | -3.09543 | -42.44239 | 35909 ft | 449 kts | 279° |
| 2026-05-06 18:02 | -3.08524 | -42.50378 | 35911 ft | 450 kts | 279° |
| 2026-05-06 18:02 | -3.07491 | -42.56597 | 35910 ft | 450 kts | 279° |
| 2026-05-06 18:03 | -3.06465 | -42.62766 | 35911 ft | 450 kts | 279° |
| 2026-05-06 18:03 | -3.05439 | -42.68930 | 35893 ft | 450 kts | 279° |
| 2026-05-06 18:04 | -3.04925 | -42.72023 | 35497 ft | 452 kts | 279° |
| 2026-05-06 18:04 | -3.04407 | -42.75121 | 34681 ft | 455 kts | 278° |
| 2026-05-06 18:04 | -3.03886 | -42.78228 | 33668 ft | 461 kts | 278° |
| 2026-05-06 18:04 | -3.03355 | -42.81415 | 32585 ft | 466 kts | 277° |
| 2026-05-06 18:05 | -3.02822 | -42.84607 | 31591 ft | 471 kts | 277° |
| 2026-05-06 18:05 | -3.02279 | -42.87863 | 30613 ft | 475 kts | 277° |
| 2026-05-06 18:05 | -3.01741 | -42.91097 | 29640 ft | 479 kts | 276° |
| 2026-05-06 18:05 | -3.01195 | -42.94378 | 28644 ft | 483 kts | 276° |
| 2026-05-06 18:06 | -3.00643 | -42.97714 | 27715 ft | 486 kts | 277° |
| 2026-05-06 18:06 | -3.00098 | -43.01020 | 26876 ft | 486 kts | 277° |
| 2026-05-06 18:06 | -2.99545 | -43.04378 | 26029 ft | 486 kts | 277° |
| 2026-05-06 18:06 | -2.98994 | -43.07693 | 25189 ft | 486 kts | 278° |
| 2026-05-06 18:07 | -2.98446 | -43.10989 | 24336 ft | 486 kts | 278° |
| 2026-05-06 18:07 | -2.97891 | -43.14326 | 23478 ft | 485 kts | 278° |
| 2026-05-06 18:07 | -2.97341 | -43.17630 | 22889 ft | 478 kts | 279° |
| 2026-05-06 18:07 | -2.96794 | -43.20903 | 22329 ft | 471 kts | 279° |
| 2026-05-06 18:08 | -2.96261 | -43.24088 | 21768 ft | 465 kts | 279° |
| 2026-05-06 18:08 | -2.95727 | -43.27268 | 21149 ft | 461 kts | 279° |
| 2026-05-06 18:08 | -2.95203 | -43.30391 | 20520 ft | 457 kts | 279° |
| 2026-05-06 18:08 | -2.94683 | -43.33507 | 19880 ft | 454 kts | 279° |
| 2026-05-06 18:09 | -2.94167 | -43.36589 | 19227 ft | 452 kts | 279° |
| 2026-05-06 18:09 | -2.93649 | -43.39686 | 18565 ft | 450 kts | 279° |
| 2026-05-06 18:09 | -2.93135 | -43.42762 | 17926 ft | 447 kts | 279° |
| 2026-05-06 18:09 | -2.92624 | -43.45816 | 17275 ft | 445 kts | 279° |
| 2026-05-06 18:10 | -2.92116 | -43.48860 | 16633 ft | 442 kts | 279° |
| 2026-05-06 18:10 | -2.91615 | -43.51862 | 16012 ft | 440 kts | 279° |
| 2026-05-06 18:10 | -2.91113 | -43.54875 | 15387 ft | 437 kts | 279° |
| 2026-05-06 18:10 | -2.90616 | -43.57857 | 14759 ft | 434 kts | 280° |
| 2026-05-06 18:11 | -2.90116 | -43.60851 | 14123 ft | 432 kts | 280° |
| 2026-05-06 18:11 | -2.89786 | -43.62823 | 13699 ft | 431 kts | 280° |
| 2026-05-06 18:11 | -2.89134 | -43.66733 | 12857 ft | 429 kts | 280° |
| 2026-05-06 18:11 | -2.88637 | -43.69698 | 12225 ft | 427 kts | 280° |
| 2026-05-06 18:12 | -2.88154 | -43.72575 | 11637 ft | 423 kts | 280° |
| 2026-05-06 18:12 | -2.87672 | -43.75457 | 11313 ft | 413 kts | 280° |
| 2026-05-06 18:12 | -2.87206 | -43.78244 | 11013 ft | 403 kts | 280° |
| 2026-05-06 18:12 | -2.86753 | -43.80953 | 10765 ft | 390 kts | 280° |
| 2026-05-06 18:13 | -2.86309 | -43.83612 | 10556 ft | 378 kts | 280° |
| 2026-05-06 18:13 | -2.85881 | -43.86167 | 10265 ft | 369 kts | 280° |
| 2026-05-06 18:13 | -2.85467 | -43.88643 | 10071 ft | 358 kts | 280° |
| 2026-05-06 18:13 | -2.85061 | -43.91074 | 9984 ft | 343 kts | 280° |
| 2026-05-06 18:14 | -2.84676 | -43.93374 | 9865 ft | 331 kts | 280° |
| 2026-05-06 18:14 | -2.84300 | -43.95615 | 9535 ft | 326 kts | 280° |
| 2026-05-06 18:14 | -2.83928 | -43.97842 | 9222 ft | 322 kts | 280° |
| 2026-05-06 18:14 | -2.83556 | -44.00055 | 8913 ft | 317 kts | 280° |
| 2026-05-06 18:15 | -2.83195 | -44.02212 | 8609 ft | 312 kts | 280° |
| 2026-05-06 18:15 | -2.82840 | -44.04327 | 8312 ft | 308 kts | 280° |
| 2026-05-06 18:15 | -2.82488 | -44.06428 | 8002 ft | 304 kts | 280° |
| 2026-05-06 18:15 | -2.82142 | -44.08494 | 7670 ft | 301 kts | 280° |
| 2026-05-06 18:16 | -2.81801 | -44.10536 | 7198 ft | 296 kts | 279° |
| 2026-05-06 18:16 | -2.81461 | -44.12558 | 6628 ft | 295 kts | 279° |
| 2026-05-06 18:16 | -2.81125 | -44.14561 | 6104 ft | 294 kts | 279° |
| 2026-05-06 18:16 | -2.80788 | -44.16574 | 5659 ft | 295 kts | 279° |
| 2026-05-06 18:17 | -2.80451 | -44.18589 | 5258 ft | 295 kts | 279° |
| 2026-05-06 18:17 | -2.80112 | -44.20612 | 4877 ft | 293 kts | 279° |
| 2026-05-06 18:17 | -2.79777 | -44.22615 | 4507 ft | 292 kts | 279° |
| 2026-05-06 18:17 | -2.79441 | -44.24616 | 4183 ft | 288 kts | 279° |
| 2026-05-06 18:18 | -2.79057 | -44.26548 | 4004 ft | 278 kts | 289° |
| 2026-05-06 18:18 | -2.78182 | -44.28224 | 3831 ft | 269 kts | 307° |
| 2026-05-06 18:18 | -2.77006 | -44.29686 | 3498 ft | 267 kts | 311° |
| 2026-05-06 18:18 | -2.75815 | -44.31088 | 3193 ft | 265 kts | 311° |
| 2026-05-06 18:19 | -2.74639 | -44.32468 | 2894 ft | 254 kts | 315° |
| 2026-05-06 18:19 | -2.73218 | -44.33374 | 2611 ft | 237 kts | 347° |
| 2026-05-06 18:19 | -2.71634 | -44.33394 | 2478 ft | 222 kts | 17° |
| 2026-05-06 18:19 | -2.70267 | -44.32788 | 2615 ft | 203 kts | 32° |
| 2026-05-06 18:20 | -2.69148 | -44.31997 | 2418 ft | 193 kts | 40° |
| 2026-05-06 18:20 | -2.68147 | -44.31175 | 2208 ft | 176 kts | 41° |
| 2026-05-06 18:20 | -2.67249 | -44.30428 | 1968 ft | 159 kts | 41° |
| 2026-05-06 18:20 | -2.66432 | -44.29762 | 1745 ft | 146 kts | 41° |
| 2026-05-06 18:21 | -2.65643 | -44.29125 | 1575 ft | 145 kts | 40° |
| 2026-05-06 18:21 | -2.64854 | -44.28490 | 1406 ft | 145 kts | 40° |
| 2026-05-06 18:21 | -2.64066 | -44.27856 | 1233 ft | 145 kts | 39° |
| 2026-05-06 18:21 | -2.63281 | -44.27223 | 1047 ft | 145 kts | 39° |
| 2026-05-06 18:22 | -2.62498 | -44.26592 | 860 ft | 145 kts | 39° |
| 2026-05-06 18:22 | -2.61715 | -44.25960 | 672 ft | 144 kts | 38° |
| 2026-05-06 18:22 | -2.60934 | -44.25330 | 487 ft | 144 kts | 38° |
| 2026-05-06 18:22 | -2.60154 | -44.24692 | 303 ft | 143 kts | 38° |
| 2026-05-06 18:23 | -2.59375 | -44.24073 | 165 ft | 137 kts | 38° |
| 2026-05-06 18:23 | -2.58855 | -44.23658 | 156 ft | 58 kts | 38° |
| 2026-05-06 18:23 | -2.58666 | -44.23504 | 152 ft | 24 kts | 38° |
| 2026-05-06 18:23 | -2.58542 | -44.23405 | 148 ft | 14 kts | 34° |
| 2026-05-06 18:24 | -2.58460 | -44.23432 | 148 ft | 13 kts | 321° |
| 2026-05-06 18:24 | -2.58449 | -44.23480 | 149 ft | 6 kts | 250° |
| 2026-05-06 18:24 | -2.58467 | -44.23529 | 151 ft | 8 kts | 250° |
| 2026-05-06 18:24 | -2.58482 | -44.23580 | 152 ft | 5 kts | 294° |
| 2026-05-06 18:25 | -2.58453 | -44.23598 | 152 ft | 3 kts | 336° |
| 2026-05-06 18:25 | -2.58435 | -44.23605 | 152 ft | 2 kts | 340° |
| 2026-05-06 18:25 | -2.58434 | -44.23605 | 152 ft | 0 kts | 340° |